sensor_id;sensor_type;location;lat;lon;timestamp;pressure;altitude;pressure_sealevel;temperature;humidity
250;BME280;109;19.806;-70.704;2022-11-15T00:00:11;101435.16;;;26.59;63.65
250;BME280;109;19.806;-70.704;2022-11-15T00:02:56;101430.19;;;26.52;63.95
250;BME280;109;19.806;-70.704;2022-11-15T00:05:41;101434.34;;;26.57;63.37
250;BME280;109;19.806;-70.704;2022-11-15T00:08:30;101444.16;;;26.58;63.81
250;BME280;109;19.806;-70.704;2022-11-15T00:11:15;101439.50;;;26.62;63.58
250;BME280;109;19.806;-70.704;2022-11-15T00:14:00;101452.19;;;26.58;62.99
250;BME280;109;19.806;-70.704;2022-11-15T00:16:47;101462.63;;;26.47;63.00
250;BME280;109;19.806;-70.704;2022-11-15T00:19:32;101466.19;;;26.47;63.17
250;BME280;109;19.806;-70.704;2022-11-15T00:22:17;101463.00;;;26.57;62.91
250;BME280;109;19.806;-70.704;2022-11-15T00:25:02;101468.00;;;26.64;62.51
250;BME280;109;19.806;-70.704;2022-11-15T00:27:47;101467.06;;;26.65;62.77
250;BME280;109;19.806;-70.704;2022-11-15T00:30:32;101478.75;;;26.64;62.53
250;BME280;109;19.806;-70.704;2022-11-15T00:33:17;101475.19;;;26.64;62.63
250;BME280;109;19.806;-70.704;2022-11-15T00:36:04;101478.03;;;26.61;62.96
250;BME280;109;19.806;-70.704;2022-11-15T00:38:49;101479.06;;;26.58;62.81
250;BME280;109;19.806;-70.704;2022-11-15T00:41:34;101487.56;;;26.49;62.88
250;BME280;109;19.806;-70.704;2022-11-15T00:44:19;101484.28;;;26.61;62.46
250;BME280;109;19.806;-70.704;2022-11-15T00:47:04;101485.94;;;26.64;62.94
250;BME280;109;19.806;-70.704;2022-11-15T00:49:49;101490.00;;;26.54;62.99
250;BME280;109;19.806;-70.704;2022-11-15T00:52:34;101492.88;;;26.50;64.09
250;BME280;109;19.806;-70.704;2022-11-15T00:55:19;101502.22;;;26.42;64.26
250;BME280;109;19.806;-70.704;2022-11-15T00:58:04;101500.59;;;26.39;64.97
250;BME280;109;19.806;-70.704;2022-11-15T01:00:49;101499.16;;;26.31;64.76
250;BME280;109;19.806;-70.704;2022-11-15T01:03:35;101508.97;;;26.32;65.61
250;BME280;109;19.806;-70.704;2022-11-15T01:06:20;101515.53;;;26.26;65.13
250;BME280;109;19.806;-70.704;2022-11-15T01:09:12;101514.78;;;26.23;65.14
250;BME280;109;19.806;-70.704;2022-11-15T01:12:04;101518.41;;;26.22;65.23
250;BME280;109;19.806;-70.704;2022-11-15T01:14:56;101524.22;;;26.12;64.86
250;BME280;109;19.806;-70.704;2022-11-15T01:17:48;101530.53;;;26.11;65.16
250;BME280;109;19.806;-70.704;2022-11-15T01:20:41;101534.75;;;25.98;64.43
250;BME280;109;19.806;-70.704;2022-11-15T01:23:33;101523.06;;;25.99;65.20
250;BME280;109;19.806;-70.704;2022-11-15T01:26:25;101526.91;;;26.12;64.75
250;BME280;109;19.806;-70.704;2022-11-15T01:29:17;101532.09;;;26.15;64.71
250;BME280;109;19.806;-70.704;2022-11-15T01:32:08;101524.50;;;25.88;64.41
250;BME280;109;19.806;-70.704;2022-11-15T01:34:59;101532.69;;;26.03;64.68
250;BME280;109;19.806;-70.704;2022-11-15T01:37:58;101534.09;;;26.12;64.43
250;BME280;109;19.806;-70.704;2022-11-15T01:40:58;101525.09;;;26.13;64.64
250;BME280;109;19.806;-70.704;2022-11-15T01:44:31;101528.47;;;26.16;64.69
250;BME280;109;19.806;-70.704;2022-11-15T01:47:20;101531.16;;;26.16;64.70
250;BME280;109;19.806;-70.704;2022-11-15T01:50:17;101532.63;;;26.24;63.94
250;BME280;109;19.806;-70.704;2022-11-15T01:53:20;101535.53;;;26.19;64.11
250;BME280;109;19.806;-70.704;2022-11-15T01:56:16;101533.84;;;26.16;64.59
250;BME280;109;19.806;-70.704;2022-11-15T01:59:18;101531.22;;;26.15;63.92
250;BME280;109;19.806;-70.704;2022-11-15T02:02:16;101534.16;;;26.10;64.29
250;BME280;109;19.806;-70.704;2022-11-15T02:05:07;101529.34;;;26.17;64.43
250;BME280;109;19.806;-70.704;2022-11-15T02:08:05;101523.56;;;26.07;64.33
250;BME280;109;19.806;-70.704;2022-11-15T02:10:57;101522.47;;;26.11;64.11
250;BME280;109;19.806;-70.704;2022-11-15T02:13:56;101525.00;;;26.14;63.73
250;BME280;109;19.806;-70.704;2022-11-15T02:17:11;101531.88;;;26.01;63.80
250;BME280;109;19.806;-70.704;2022-11-15T02:40:44;101558.22;;;26.12;63.69
250;BME280;109;19.806;-70.704;2022-11-15T02:43:56;101566.09;;;25.76;64.79
250;BME280;109;19.806;-70.704;2022-11-15T02:47:01;101558.06;;;25.76;65.63
250;BME280;109;19.806;-70.704;2022-11-15T02:50:10;101562.56;;;25.75;66.56
250;BME280;109;19.806;-70.704;2022-11-15T02:53:11;101562.84;;;25.69;66.93
250;BME280;109;19.806;-70.704;2022-11-15T02:56:02;101564.78;;;25.66;67.05
250;BME280;109;19.806;-70.704;2022-11-15T03:05:41;101560.91;;;25.53;67.47
250;BME280;109;19.806;-70.704;2022-11-15T03:12:57;101545.66;;;25.34;67.69
250;BME280;109;19.806;-70.704;2022-11-15T03:15:29;101552.97;;;25.31;67.22
250;BME280;109;19.806;-70.704;2022-11-15T03:18:35;101552.47;;;25.21;67.39
250;BME280;109;19.806;-70.704;2022-11-15T03:21:34;101541.94;;;25.17;67.12
250;BME280;109;19.806;-70.704;2022-11-15T03:24:29;101549.63;;;25.24;67.39
250;BME280;109;19.806;-70.704;2022-11-15T03:27:35;101549.63;;;25.24;67.20
250;BME280;109;19.806;-70.704;2022-11-15T03:30:28;101542.53;;;25.23;66.76
250;BME280;109;19.806;-70.704;2022-11-15T03:33:29;101545.56;;;25.16;66.57
250;BME280;109;19.806;-70.704;2022-11-15T03:36:30;101546.38;;;25.18;66.55
250;BME280;109;19.806;-70.704;2022-11-15T03:39:29;101537.97;;;25.05;65.78
250;BME280;109;19.806;-70.704;2022-11-15T03:42:32;101533.63;;;25.02;66.21
250;BME280;109;19.806;-70.704;2022-11-15T03:45:31;101544.47;;;24.99;65.77
250;BME280;109;19.806;-70.704;2022-11-15T03:48:42;101544.22;;;25.05;66.23
250;BME280;109;19.806;-70.704;2022-11-15T03:51:41;101540.84;;;25.00;65.43
250;BME280;109;19.806;-70.704;2022-11-15T03:54:33;101538.78;;;25.07;65.66
250;BME280;109;19.806;-70.704;2022-11-15T03:57:31;101528.09;;;25.07;65.40
250;BME280;109;19.806;-70.704;2022-11-15T04:00:23;101533.38;;;25.08;65.31
250;BME280;109;19.806;-70.704;2022-11-15T04:03:21;101532.09;;;25.17;65.45
250;BME280;109;19.806;-70.704;2022-11-15T04:06:20;101532.69;;;25.24;64.95
250;BME280;109;19.806;-70.704;2022-11-15T04:09:19;101518.50;;;25.22;65.20
250;BME280;109;19.806;-70.704;2022-11-15T04:12:17;101516.59;;;25.24;65.36
250;BME280;109;19.806;-70.704;2022-11-15T04:15:23;101512.94;;;25.26;65.11
250;BME280;109;19.806;-70.704;2022-11-15T04:18:21;101498.66;;;25.26;64.82
250;BME280;109;19.806;-70.704;2022-11-15T04:21:13;101499.47;;;25.28;64.68
250;BME280;109;19.806;-70.704;2022-11-15T04:24:30;101504.09;;;25.24;64.17
250;BME280;109;19.806;-70.704;2022-11-15T04:27:29;101504.91;;;25.26;64.45
250;BME280;109;19.806;-70.704;2022-11-15T04:30:20;101507.34;;;25.32;64.83
250;BME280;109;19.806;-70.704;2022-11-15T04:33:18;101498.94;;;25.40;64.71
250;BME280;109;19.806;-70.704;2022-11-15T04:36:10;101494.69;;;25.36;64.70
250;BME280;109;19.806;-70.704;2022-11-15T04:39:34;101496.50;;;25.35;65.30
250;BME280;109;19.806;-70.704;2022-11-15T04:42:33;101495.63;;;25.35;65.79
250;BME280;109;19.806;-70.704;2022-11-15T04:45:25;101484.69;;;25.39;65.51
250;BME280;109;19.806;-70.704;2022-11-15T04:48:29;101490.03;;;25.39;65.22
250;BME280;109;19.806;-70.704;2022-11-15T04:51:27;101480.56;;;25.32;65.83
250;BME280;109;19.806;-70.704;2022-11-15T04:54:19;101474.97;;;25.37;65.74
250;BME280;109;19.806;-70.704;2022-11-15T04:57:17;101475.78;;;25.39;65.31
250;BME280;109;19.806;-70.704;2022-11-15T05:00:11;101466.94;;;25.37;65.29
250;BME280;109;19.806;-70.704;2022-11-15T05:03:11;101476.56;;;25.41;65.37
250;BME280;109;19.806;-70.704;2022-11-15T05:06:20;101471.34;;;25.38;65.32
250;BME280;109;19.806;-70.704;2022-11-15T05:09:19;101469.53;;;25.38;65.56
250;BME280;109;19.806;-70.704;2022-11-15T05:12:18;101472.22;;;25.38;65.76
250;BME280;109;19.806;-70.704;2022-11-15T05:15:10;101469.72;;;25.35;65.57
250;BME280;109;19.806;-70.704;2022-11-15T05:18:08;101462.66;;;25.33;64.64
250;BME280;109;19.806;-70.704;2022-11-15T05:21:08;101459.75;;;25.37;65.50
250;BME280;109;19.806;-70.704;2022-11-15T05:24:10;101453.53;;;25.37;65.51
250;BME280;109;19.806;-70.704;2022-11-15T05:27:08;101441.59;;;25.24;65.83
250;BME280;109;19.806;-70.704;2022-11-15T05:29:59;101443.69;;;25.17;66.19
250;BME280;109;19.806;-70.704;2022-11-15T05:32:57;101449.41;;;25.09;66.20
250;BME280;109;19.806;-70.704;2022-11-15T05:35:54;101443.25;;;25.07;66.13
250;BME280;109;19.806;-70.704;2022-11-15T05:39:04;101438.88;;;25.05;65.92
250;BME280;109;19.806;-70.704;2022-11-15T05:42:14;101433.53;;;25.05;66.40
250;BME280;109;19.806;-70.704;2022-11-15T05:45:06;101431.03;;;25.00;66.28
250;BME280;109;19.806;-70.704;2022-11-15T05:48:07;101437.19;;;25.02;66.36
250;BME280;109;19.806;-70.704;2022-11-15T05:51:01;101428.16;;;25.05;66.42
250;BME280;109;19.806;-70.704;2022-11-15T05:54:02;101425.69;;;25.00;66.43
250;BME280;109;19.806;-70.704;2022-11-15T05:57:00;101421.06;;;25.04;66.57
250;BME280;109;19.806;-70.704;2022-11-15T05:59:51;101414.66;;;25.08;66.48
250;BME280;109;19.806;-70.704;2022-11-15T06:02:50;101414.03;;;25.01;66.09
250;BME280;109;19.806;-70.704;2022-11-15T06:05:42;101415.03;;;24.99;66.50
250;BME280;109;19.806;-70.704;2022-11-15T06:08:41;101416.59;;;25.04;66.42
250;BME280;109;19.806;-70.704;2022-11-15T06:11:39;101418.59;;;24.99;66.27
250;BME280;109;19.806;-70.704;2022-11-15T06:14:38;101413.16;;;25.01;66.24
250;BME280;109;19.806;-70.704;2022-11-15T06:17:36;101425.38;;;25.08;66.55
250;BME280;109;19.806;-70.704;2022-11-15T06:20:28;101410.00;;;25.11;66.78
250;BME280;109;19.806;-70.704;2022-11-15T06:23:31;101409.06;;;25.13;66.47
250;BME280;109;19.806;-70.704;2022-11-15T06:26:30;101407.38;;;25.10;66.36
250;BME280;109;19.806;-70.704;2022-11-15T06:29:22;101407.38;;;25.10;66.32
250;BME280;109;19.806;-70.704;2022-11-15T06:32:20;101399.91;;;25.18;65.76
250;BME280;109;19.806;-70.704;2022-11-15T06:35:13;101403.38;;;25.20;65.72
250;BME280;109;19.806;-70.704;2022-11-15T06:38:11;101403.50;;;25.17;65.59
250;BME280;109;19.806;-70.704;2022-11-15T06:41:10;101391.72;;;25.21;65.50
250;BME280;109;19.806;-70.704;2022-11-15T06:44:09;101387.13;;;25.23;65.34
250;BME280;109;19.806;-70.704;2022-11-15T06:47:07;101395.53;;;25.36;65.30
250;BME280;109;19.806;-70.704;2022-11-15T06:49:58;101389.06;;;25.40;64.78
250;BME280;109;19.806;-70.704;2022-11-15T06:53:01;101391.81;;;25.38;64.85
250;BME280;109;19.806;-70.704;2022-11-15T06:55:56;101391.03;;;25.36;64.60
250;BME280;109;19.806;-70.704;2022-11-15T06:58:55;101386.78;;;25.32;64.74
250;BME280;109;19.806;-70.704;2022-11-15T07:01:54;101384.16;;;25.31;65.00
250;BME280;109;19.806;-70.704;2022-11-15T07:04:46;101380.47;;;25.33;64.76
250;BME280;109;19.806;-70.704;2022-11-15T07:07:51;101390.38;;;25.31;64.93
250;BME280;109;19.806;-70.704;2022-11-15T07:10:43;101385.84;;;25.33;64.88
250;BME280;109;19.806;-70.704;2022-11-15T07:13:41;101380.31;;;25.36;64.48
250;BME280;109;19.806;-70.704;2022-11-15T07:16:45;101380.91;;;25.43;64.93
250;BME280;109;19.806;-70.704;2022-11-15T07:19:37;101384.25;;;25.48;64.58
250;BME280;109;19.806;-70.704;2022-11-15T07:22:35;101385.31;;;25.44;64.83
250;BME280;109;19.806;-70.704;2022-11-15T07:25:26;101384.59;;;25.40;64.37
250;BME280;109;19.806;-70.704;2022-11-15T07:28:28;101383.59;;;25.43;64.87
250;BME280;109;19.806;-70.704;2022-11-15T07:31:26;101385.66;;;25.36;65.10
250;BME280;109;19.806;-70.704;2022-11-15T07:34:18;101384.72;;;25.37;64.88
250;BME280;109;19.806;-70.704;2022-11-15T07:37:17;101391.13;;;25.35;64.87
250;BME280;109;19.806;-70.704;2022-11-15T07:40:15;101396.63;;;25.32;64.71
250;BME280;109;19.806;-70.704;2022-11-15T07:43:13;101390.38;;;25.31;64.92
250;BME280;109;19.806;-70.704;2022-11-15T07:46:08;101393.13;;;25.30;65.13
250;BME280;109;19.806;-70.704;2022-11-15T07:49:06;101396.91;;;25.24;64.82
250;BME280;109;19.806;-70.704;2022-11-15T07:52:04;101392.59;;;25.22;65.19
250;BME280;109;19.806;-70.704;2022-11-15T07:54:56;101401.69;;;25.18;65.26
250;BME280;109;19.806;-70.704;2022-11-15T07:58:03;101390.38;;;25.11;65.42
250;BME280;109;19.806;-70.704;2022-11-15T08:00:55;101400.59;;;25.03;65.48
250;BME280;109;19.806;-70.704;2022-11-15T08:04:00;101406.22;;;24.97;66.09
250;BME280;109;19.806;-70.704;2022-11-15T08:06:58;101396.84;;;24.87;65.66
250;BME280;109;19.806;-70.704;2022-11-15T08:09:49;101392.66;;;24.81;65.72
250;BME280;109;19.806;-70.704;2022-11-15T08:12:47;101398.19;;;24.77;66.09
250;BME280;109;19.806;-70.704;2022-11-15T08:15:38;101394.88;;;24.70;65.59
250;BME280;109;19.806;-70.704;2022-11-15T08:18:37;101393.22;;;24.67;65.69
250;BME280;109;19.806;-70.704;2022-11-15T08:21:35;101400.16;;;24.71;66.04
250;BME280;109;19.806;-70.704;2022-11-15T08:24:28;101398.44;;;24.70;65.68
250;BME280;109;19.806;-70.704;2022-11-15T08:27:26;101399.22;;;24.72;66.02
250;BME280;109;19.806;-70.704;2022-11-15T08:30:17;101393.22;;;24.67;66.01
250;BME280;109;19.806;-70.704;2022-11-15T08:33:16;101403.22;;;24.62;66.17
250;BME280;109;19.806;-70.704;2022-11-15T08:36:16;101402.44;;;24.60;65.98
250;BME280;109;19.806;-70.704;2022-11-15T08:39:15;101412.66;;;24.51;65.80
250;BME280;109;19.806;-70.704;2022-11-15T08:42:19;101405.56;;;24.50;66.34
250;BME280;109;19.806;-70.704;2022-11-15T08:45:11;101412.72;;;24.49;66.43
250;BME280;109;19.806;-70.704;2022-11-15T08:48:09;101414.47;;;24.50;66.25
250;BME280;109;19.806;-70.704;2022-11-15T08:51:08;101410.09;;;24.48;66.60
250;BME280;109;19.806;-70.704;2022-11-15T08:54:06;101412.78;;;24.48;66.43
250;BME280;109;19.806;-70.704;2022-11-15T08:57:06;101415.53;;;24.46;66.22
250;BME280;109;19.806;-70.704;2022-11-15T08:59:57;101421.97;;;24.42;66.13
250;BME280;109;19.806;-70.704;2022-11-15T09:02:55;101414.66;;;24.46;66.39
250;BME280;109;19.806;-70.704;2022-11-15T09:05:47;101413.78;;;24.45;66.13
250;BME280;109;19.806;-70.704;2022-11-15T09:08:45;101416.31;;;24.48;66.26
250;BME280;109;19.806;-70.704;2022-11-15T09:11:43;101419.88;;;24.49;66.24
250;BME280;109;19.806;-70.704;2022-11-15T09:14:35;101421.03;;;24.43;66.29
250;BME280;109;19.806;-70.704;2022-11-15T09:17:34;101415.91;;;24.37;66.48
250;BME280;109;19.806;-70.704;2022-11-15T09:20:26;101418.66;;;24.35;66.46
250;BME280;109;19.806;-70.704;2022-11-15T09:23:25;101432.16;;;24.32;66.36
250;BME280;109;19.806;-70.704;2022-11-15T09:26:23;101428.75;;;24.29;66.67
250;BME280;109;19.806;-70.704;2022-11-15T09:29:21;101425.16;;;24.30;66.06
250;BME280;109;19.806;-70.704;2022-11-15T09:32:19;101426.78;;;24.32;65.91
250;BME280;109;19.806;-70.704;2022-11-15T09:35:11;101431.38;;;24.30;65.62
250;BME280;109;19.806;-70.704;2022-11-15T09:38:10;101437.81;;;24.25;66.16
250;BME280;109;19.806;-70.704;2022-11-15T09:44:52;101440.56;;;24.23;66.28
250;BME280;109;19.806;-70.704;2022-11-15T09:48:03;101444.03;;;24.25;66.18
250;BME280;109;19.806;-70.704;2022-11-15T09:56:48;101453.63;;;24.31;66.40
250;BME280;109;19.806;-70.704;2022-11-15T10:04:54;101458.34;;;24.24;66.20
250;BME280;109;19.806;-70.704;2022-11-15T10:07:55;101454.13;;;24.19;66.00
250;BME280;109;19.806;-70.704;2022-11-15T10:13:26;101456.59;;;24.23;66.12
250;BME280;109;19.806;-70.704;2022-11-15T10:16:33;101463.59;;;24.27;65.97
250;BME280;109;19.806;-70.704;2022-11-15T10:22:27;101474.13;;;24.32;65.88
250;BME280;109;19.806;-70.704;2022-11-15T10:28:22;101466.88;;;24.34;65.89
250;BME280;109;19.806;-70.704;2022-11-15T10:31:42;101465.94;;;24.35;65.87
250;BME280;109;19.806;-70.704;2022-11-15T10:34:23;101473.03;;;24.36;65.82
250;BME280;109;19.806;-70.704;2022-11-15T10:37:05;101475.53;;;24.40;65.72
250;BME280;109;19.806;-70.704;2022-11-15T10:39:31;101480.88;;;24.40;65.66
250;BME280;109;19.806;-70.704;2022-11-15T10:42:25;101483.63;;;24.39;65.73
250;BME280;109;19.806;-70.704;2022-11-15T10:44:59;101489.91;;;24.38;65.44
250;BME280;109;19.806;-70.704;2022-11-15T10:47:39;101488.97;;;24.39;65.48
250;BME280;109;19.806;-70.704;2022-11-15T10:50:25;101493.13;;;24.46;65.09
250;BME280;109;19.806;-70.704;2022-11-15T10:53:33;101495.50;;;24.54;64.87
250;BME280;109;19.806;-70.704;2022-11-15T10:56:07;101503.13;;;24.63;64.97
250;BME280;109;19.806;-70.704;2022-11-15T10:58:41;101508.25;;;24.69;64.52
250;BME280;109;19.806;-70.704;2022-11-15T11:01:18;101507.13;;;24.74;64.30
250;BME280;109;19.806;-70.704;2022-11-15T11:03:57;101522.97;;;24.81;64.49
250;BME280;109;19.806;-70.704;2022-11-15T11:06:28;101518.41;;;24.83;64.01
250;BME280;109;19.806;-70.704;2022-11-15T11:09:00;101527.50;;;24.79;63.75
250;BME280;109;19.806;-70.704;2022-11-15T11:14:23;101533.91;;;24.96;63.25
250;BME280;109;19.806;-70.704;2022-11-15T11:23:37;101546.78;;;25.08;63.48
250;BME280;109;19.806;-70.704;2022-11-15T11:28:34;101551.78;;;25.16;63.87
250;BME280;109;19.806;-70.704;2022-11-15T11:37:15;101546.88;;;25.26;62.57
250;BME280;109;19.806;-70.704;2022-11-15T11:42:34;101554.66;;;25.33;61.79
250;BME280;109;19.806;-70.704;2022-11-15T11:45:14;101560.47;;;25.43;61.54
250;BME280;109;19.806;-70.704;2022-11-15T11:48:10;101557.72;;;25.44;61.38
250;BME280;109;19.806;-70.704;2022-11-15T11:50:38;101558.97;;;25.56;61.69
250;BME280;109;19.806;-70.704;2022-11-15T11:53:23;101551.25;;;25.69;61.67
250;BME280;109;19.806;-70.704;2022-11-15T11:55:54;101550.81;;;25.78;61.52
250;BME280;109;19.806;-70.704;2022-11-15T11:58:40;101557.06;;;25.78;60.81
250;BME280;109;19.806;-70.704;2022-11-15T12:06:44;101562.25;;;26.02;61.55
250;BME280;109;19.806;-70.704;2022-11-15T12:14:50;101585.13;;;26.29;60.29
250;BME280;109;19.806;-70.704;2022-11-15T12:17:24;101582.09;;;26.37;60.66
250;BME280;109;19.806;-70.704;2022-11-15T12:19:55;101591.47;;;26.47;60.46
250;BME280;109;19.806;-70.704;2022-11-15T12:22:32;101596.19;;;26.42;60.54
250;BME280;109;19.806;-70.704;2022-11-15T12:25:15;101609.75;;;26.39;59.85
250;BME280;109;19.806;-70.704;2022-11-15T12:27:54;101610.41;;;26.63;60.45
250;BME280;109;19.806;-70.704;2022-11-15T12:30:23;101613.63;;;26.69;59.47
250;BME280;109;19.806;-70.704;2022-11-15T12:33:01;101613.44;;;26.74;59.88
250;BME280;109;19.806;-70.704;2022-11-15T12:35:40;101620.59;;;26.92;59.60
250;BME280;109;19.806;-70.704;2022-11-15T12:38:12;101627.06;;;26.88;59.52
250;BME280;109;19.806;-70.704;2022-11-15T12:41:17;101627.19;;;26.85;59.17
250;BME280;109;19.806;-70.704;2022-11-15T12:43:45;101624.00;;;26.96;59.24
250;BME280;109;19.806;-70.704;2022-11-15T12:46:20;101625.13;;;27.09;58.54
250;BME280;109;19.806;-70.704;2022-11-15T12:48:53;101620.47;;;27.12;58.72
250;BME280;109;19.806;-70.704;2022-11-15T12:52:06;101626.88;;;27.10;58.85
250;BME280;109;19.806;-70.704;2022-11-15T13:02:33;101627.28;;;27.19;58.64
250;BME280;109;19.806;-70.704;2022-11-15T13:15:45;101640.56;;;27.23;59.05
250;BME280;109;19.806;-70.704;2022-11-15T13:18:34;101647.28;;;27.31;58.82
250;BME280;109;19.806;-70.704;2022-11-15T13:21:02;101651.97;;;27.28;58.93
250;BME280;109;19.806;-70.704;2022-11-15T13:23:54;101655.34;;;27.31;59.43
250;BME280;109;19.806;-70.704;2022-11-15T13:26:21;101652.06;;;27.43;58.80
250;BME280;109;19.806;-70.704;2022-11-15T13:28:50;101642.03;;;27.47;58.75
250;BME280;109;19.806;-70.704;2022-11-15T13:31:41;101647.63;;;27.77;58.83
250;BME280;109;19.806;-70.704;2022-11-15T13:34:24;101651.56;;;27.87;58.38
250;BME280;109;19.806;-70.704;2022-11-15T13:36:51;101646.28;;;28.03;58.62
250;BME280;109;19.806;-70.704;2022-11-15T13:39:33;101648.03;;;28.04;58.31
250;BME280;109;19.806;-70.704;2022-11-15T13:42:00;101653.06;;;28.10;58.41
250;BME280;109;19.806;-70.704;2022-11-15T13:44:30;101651.59;;;28.04;58.62
250;BME280;109;19.806;-70.704;2022-11-15T13:47:01;101654.13;;;28.07;58.92
250;BME280;109;19.806;-70.704;2022-11-15T13:49:30;101651.53;;;28.21;58.79
250;BME280;109;19.806;-70.704;2022-11-15T13:52:00;101661.41;;;28.05;59.00
250;BME280;109;19.806;-70.704;2022-11-15T13:57:24;101659.16;;;28.13;58.56
250;BME280;109;19.806;-70.704;2022-11-15T13:59:56;101656.81;;;28.23;58.20
250;BME280;109;19.806;-70.704;2022-11-15T14:02:35;101658.44;;;28.10;58.43
250;BME280;109;19.806;-70.704;2022-11-15T14:05:17;101666.69;;;28.07;58.49
250;BME280;109;19.806;-70.704;2022-11-15T14:08:02;101670.56;;;28.01;58.36
250;BME280;109;19.806;-70.704;2022-11-15T14:10:36;101661.91;;;28.12;58.59
250;BME280;109;19.806;-70.704;2022-11-15T14:13:09;101660.13;;;28.28;58.73
250;BME280;109;19.806;-70.704;2022-11-15T14:15:38;101666.13;;;28.17;58.78
250;BME280;109;19.806;-70.704;2022-11-15T14:18:37;101663.03;;;28.41;58.88
250;BME280;109;19.806;-70.704;2022-11-15T14:21:15;101662.25;;;28.39;57.81
250;BME280;109;19.806;-70.704;2022-11-15T14:23:42;101659.75;;;28.51;58.47
250;BME280;109;19.806;-70.704;2022-11-15T14:26:29;101651.53;;;28.54;57.99
250;BME280;109;19.806;-70.704;2022-11-15T14:28:56;101647.72;;;28.58;59.02
250;BME280;109;19.806;-70.704;2022-11-15T14:31:23;101655.72;;;28.60;58.70
250;BME280;109;19.806;-70.704;2022-11-15T14:33:49;101650.28;;;28.76;58.74
250;BME280;109;19.806;-70.704;2022-11-15T14:36:18;101651.78;;;28.66;58.26
250;BME280;109;19.806;-70.704;2022-11-15T14:38:46;101645.19;;;28.71;58.14
250;BME280;109;19.806;-70.704;2022-11-15T14:41:21;101646.91;;;28.88;58.15
250;BME280;109;19.806;-70.704;2022-11-15T14:43:48;101645.84;;;28.90;57.83
250;BME280;109;19.806;-70.704;2022-11-15T14:46:15;101641.25;;;28.92;57.70
250;BME280;109;19.806;-70.704;2022-11-15T14:48:42;101639.50;;;28.91;58.15
250;BME280;109;19.806;-70.704;2022-11-15T14:51:12;101629.78;;;29.05;58.20
250;BME280;109;19.806;-70.704;2022-11-15T14:53:40;101629.88;;;29.03;58.00
250;BME280;109;19.806;-70.704;2022-11-15T14:56:07;101629.53;;;28.78;58.10
250;BME280;109;19.806;-70.704;2022-11-15T14:58:34;101624.47;;;28.40;58.88
250;BME280;109;19.806;-70.704;2022-11-15T15:01:03;101625.91;;;28.14;59.52
250;BME280;109;19.806;-70.704;2022-11-15T15:03:35;101622.50;;;28.11;59.39
250;BME280;109;19.806;-70.704;2022-11-15T15:06:02;101621.66;;;28.26;59.69
250;BME280;109;19.806;-70.704;2022-11-15T15:08:28;101618.88;;;28.28;59.06
250;BME280;109;19.806;-70.704;2022-11-15T15:10:54;101617.94;;;28.29;59.73
250;BME280;109;19.806;-70.704;2022-11-15T15:13:23;101616.13;;;28.45;58.96
250;BME280;109;19.806;-70.704;2022-11-15T15:15:51;101610.75;;;27.96;60.25
250;BME280;109;19.806;-70.704;2022-11-15T15:18:18;101600.19;;;27.41;61.70
250;BME280;109;19.806;-70.704;2022-11-15T15:20:49;101604.88;;;27.55;61.83
250;BME280;109;19.806;-70.704;2022-11-15T15:23:20;101612.22;;;27.51;61.78
250;BME280;109;19.806;-70.704;2022-11-15T15:25:48;101610.69;;;27.29;61.25
250;BME280;109;19.806;-70.704;2022-11-15T15:28:18;101605.41;;;27.44;61.09
250;BME280;109;19.806;-70.704;2022-11-15T15:30:45;101600.66;;;27.67;61.33
250;BME280;109;19.806;-70.704;2022-11-15T15:33:11;101596.81;;;27.88;60.44
250;BME280;109;19.806;-70.704;2022-11-15T15:35:38;101589.22;;;27.96;60.48
250;BME280;109;19.806;-70.704;2022-11-15T15:38:04;101595.44;;;28.30;60.29
250;BME280;109;19.806;-70.704;2022-11-15T15:40:32;101592.31;;;28.21;59.75
250;BME280;109;19.806;-70.704;2022-11-15T15:42:59;101592.84;;;28.28;59.44
250;BME280;109;19.806;-70.704;2022-11-15T15:45:26;101588.94;;;28.18;59.35
250;BME280;109;19.806;-70.704;2022-11-15T15:47:53;101577.13;;;28.20;58.87
250;BME280;109;19.806;-70.704;2022-11-15T15:52:50;101557.44;;;28.51;59.10
250;BME280;109;19.806;-70.704;2022-11-15T15:55:17;101553.59;;;28.71;59.10
250;BME280;109;19.806;-70.704;2022-11-15T15:57:44;101549.78;;;28.59;58.93
250;BME280;109;19.806;-70.704;2022-11-15T16:00:10;101557.75;;;28.61;57.65
250;BME280;109;19.806;-70.704;2022-11-15T16:02:40;101551.06;;;28.68;57.19
250;BME280;109;19.806;-70.704;2022-11-15T16:05:08;101552.97;;;28.82;57.51
250;BME280;109;19.806;-70.704;2022-11-15T16:07:35;101546.53;;;28.84;56.89
250;BME280;109;19.806;-70.704;2022-11-15T16:10:13;101540.28;;;28.84;55.64
250;BME280;109;19.806;-70.704;2022-11-15T16:12:41;101541.41;;;28.80;57.16
250;BME280;109;19.806;-70.704;2022-11-15T16:15:08;101537.66;;;28.82;57.06
250;BME280;109;19.806;-70.704;2022-11-15T16:17:40;101531.31;;;28.83;57.84
250;BME280;109;19.806;-70.704;2022-11-15T16:22:48;101522.00;;;28.89;58.66
250;BME280;109;19.806;-70.704;2022-11-15T16:25:14;101521.50;;;28.98;58.16
250;BME280;109;19.806;-70.704;2022-11-15T16:27:41;101522.78;;;28.91;58.13
250;BME280;109;19.806;-70.704;2022-11-15T16:30:16;101509.06;;;28.80;58.50
250;BME280;109;19.806;-70.704;2022-11-15T16:32:43;101506.69;;;28.89;59.07
250;BME280;109;19.806;-70.704;2022-11-15T16:35:13;101507.09;;;28.68;58.57
250;BME280;109;19.806;-70.704;2022-11-15T16:37:40;101499.03;;;28.68;59.69
250;BME280;109;19.806;-70.704;2022-11-15T16:42:52;101494.41;;;28.70;59.91
250;BME280;109;19.806;-70.704;2022-11-15T16:45:18;101491.13;;;28.65;58.50
250;BME280;109;19.806;-70.704;2022-11-15T16:47:45;101489.03;;;28.70;58.68
250;BME280;109;19.806;-70.704;2022-11-15T16:50:26;101498.34;;;28.64;58.31
250;BME280;109;19.806;-70.704;2022-11-15T16:52:55;101496.88;;;28.58;58.90